Time;durP1;ratioP1;P1;durP2;ratioP2;P2;SDS_P1;SDS_P2;PMS_P1;PMS_P2;Temp;Humidity;BMP_temperature;BMP_pressure;BME280_temperature;BME280_humidity;BME280_pressure;Samples;Min_cycle;Max_cycle;Signal;HPM_P1;HPM_P2
2023/02/05 00:01:39;;;;;;;6.37;2.13;;;;;;;;;;5070097;28;20471;-69
2023/02/05 00:04:06;;;;;;;5.17;2.67;;;;;;;;;;5070689;28;20439;-69
2023/02/05 00:06:33;;;;;;;4.77;2.47;;;;;;;;;;5069785;28;20477;-69
2023/02/05 00:09:00;;;;;;;2.43;2.07;;;;;;;;;;5070769;28;20452;-69
2023/02/05 00:11:27;;;;;;;10.77;2.80;;;;;;;;;;5070090;28;20433;-69
2023/02/05 00:13:54;;;;;;;5.03;2.80;;;;;;;;;;5070237;28;20460;-69
2023/02/05 00:16:25;;;;;;;3.90;2.27;;;;;;;;;;5070177;28;20440;-69
2023/02/05 00:18:53;;;;;;;4.20;1.80;;;;;;;;;;5070655;28;20447;-69
2023/02/05 00:21:21;;;;;;;3.93;1.63;;;;;;;;;;5070897;28;20437;-70
2023/02/05 00:23:49;;;;;;;3.70;2.27;;;;;;;;;;5070592;28;20442;-69
2023/02/05 00:26:16;;;;;;;5.60;2.20;;;;;;;;;;5070275;28;20885;-69
2023/02/05 00:28:43;;;;;;;4.40;2.23;;;;;;;;;;5069871;28;20438;-69
2023/02/05 00:31:11;;;;;;;2.10;1.60;;;;;;;;;;5070651;28;20799;-69
2023/02/05 00:33:39;;;;;;;5.67;2.47;;;;;;;;;;5069502;28;20461;-69
2023/02/05 00:36:07;;;;;;;5.80;2.30;;;;;;;;;;5070072;28;20479;-69
2023/02/05 00:38:35;;;;;;;5.80;2.50;;;;;;;;;;5069738;28;20453;-69
2023/02/05 00:41:02;;;;;;;7.27;2.40;;;;;;;;;;5069648;28;20449;-69
2023/02/05 00:43:29;;;;;;;5.50;2.00;;;;;;;;;;5069756;28;20811;-69
2023/02/05 00:45:56;;;;;;;3.40;1.77;;;;;;;;;;5069949;28;20492;-69
2023/02/05 00:48:23;;;;;;;2.63;2.13;;;;;;;;;;5072024;28;20626;-68
2023/02/05 00:50:52;;;;;;;6.43;3.30;;;;;;;;;;5073934;28;20449;-69
2023/02/05 00:53:20;;;;;;;5.07;2.57;;;;;;;;;;5073805;28;20783;-69
2023/02/05 00:55:47;;;;;;;5.17;3.00;;;;;;;;;;5073829;28;20446;-70
2023/02/05 00:58:15;;;;;;;3.50;2.00;;;;;;;;;;5072580;28;20460;-70
2023/02/05 01:00:43;;;;;;;6.50;3.67;;;7.90;1.00;;;;;;5072801;28;20526;-70
2023/02/05 01:03:10;;;;;;;5.33;3.03;;;4.30;1.00;;;;;;5073185;28;20460;-69
2023/02/05 01:05:38;;;;;;;2.80;1.80;;;4.50;99.90;;;;;;5073181;28;20465;-70
2023/02/05 01:08:10;;;;;;;6.77;3.13;;;4.60;99.90;;;;;;5072924;28;20446;-68
2023/02/05 01:10:37;;;;;;;4.33;2.63;;;4.40;42.90;;;;;;5072449;28;20487;-68
2023/02/05 01:13:05;;;;;;;15.13;3.63;;;4.30;99.90;;;;;;5072851;28;20445;-69
2023/02/05 01:15:32;;;;;;;2.70;2.27;;;4.40;99.90;;;;;;5072390;28;20468;-68
2023/02/05 01:17:59;;;;;;;3.73;3.07;;;4.40;99.90;;;;;;5072344;28;20446;-68
2023/02/05 01:20:27;;;;;;;4.93;2.50;;;4.50;99.90;;;;;;5069089;28;20490;-68
2023/02/05 01:22:54;;;;;;;3.57;1.97;;;4.60;99.90;;;;;;5059549;28;20526;-68
2023/02/05 01:25:22;;;;;;;6.07;3.03;;;4.60;99.90;;;;;;5073016;28;20480;-68
2023/02/05 01:27:49;;;;;;;3.03;2.10;;;4.70;99.90;;;;;;5072808;28;20450;-68
2023/02/05 01:30:16;;;;;;;4.13;2.60;;;4.60;1.00;;;;;;5073002;28;20437;-68
2023/02/05 01:32:43;;;;;;;5.90;2.87;;;4.40;99.90;;;;;;5072357;28;20445;-68
2023/02/05 01:35:10;;;;;;;3.03;2.00;;;4.20;99.90;;;;;;5073030;28;20445;-68
2023/02/05 01:37:36;;;;;;;7.87;3.43;;;4.00;1.00;;;;;;5071741;28;20954;-69
2023/02/05 01:40:04;;;;;;;5.97;2.50;;;;;;;;;;5073026;28;20449;-69
2023/02/05 01:42:33;;;;;;;2.20;1.70;;;;;;;;;;5072476;28;20907;-69
2023/02/05 01:45:31;;;;;;;5.23;2.40;;;;;;;;;;5072637;28;20469;-68
2023/02/05 01:47:59;;;;;;;3.57;2.27;;;;;;;;;;5010159;28;20515;-68
2023/02/05 01:50:28;;;;;;;1.80;1.60;;;;;;;;;;5058109;28;20545;-68
2023/02/05 01:52:56;;;;;;;2.07;1.57;;;;;;;;;;5072825;28;20441;-67
2023/02/05 01:55:23;;;;;;;3.20;2.03;;;;;;;;;;5072839;28;20449;-67
2023/02/05 01:57:52;;;;;;;7.63;2.77;;;;;;;;;;5072198;28;20456;-68
2023/02/05 02:00:19;;;;;;;3.13;1.43;;;;;;;;;;5058689;28;20470;-69
2023/02/05 02:02:46;;;;;;;1.97;1.63;;;;;;;;;;5071568;28;20451;-68
2023/02/05 02:05:14;;;;;;;4.47;2.40;;;;;;;;;;5072131;28;20444;-69
2023/02/05 02:07:42;;;;;;;4.43;2.00;;;;;;;;;;5071193;28;21221;-68
2023/02/05 02:10:10;;;;;;;5.07;2.50;;;;;;;;;;5072415;28;20444;-68
2023/02/05 02:12:38;;;;;;;3.50;2.50;;;;;;;;;;5071735;28;20445;-68
2023/02/05 02:15:09;;;;;;;3.53;2.10;;;;;;;;;;5072579;28;20464;-68
2023/02/05 02:17:38;;;;;;;6.73;3.30;;;;;;;;;;5071125;28;20437;-68
2023/02/05 02:20:07;;;;;;;2.80;2.20;;;;;;;;;;5072052;28;20433;-68
2023/02/05 02:22:42;;;;;;;2.50;2.03;;;;;;;;;;5058054;28;20434;-69
2023/02/05 02:25:24;;;;;;;3.23;2.23;;;;;;;;;;5071912;28;20440;-69
2023/02/05 02:27:54;;;;;;;5.53;3.00;;;;;;;;;;5037975;28;20453;-69
2023/02/05 02:30:24;;;;;;;3.00;2.07;;;;;;;;;;5071473;28;20445;-69
2023/02/05 02:32:54;;;;;;;3.97;2.73;;;;;;;;;;5071486;28;20448;-68
2023/02/05 02:35:26;;;;;;;10.13;2.17;;;;;;;;;;5071421;28;20453;-69
2023/02/05 02:37:58;;;;;;;3.90;2.20;;;;;;;;;;5070844;28;20441;-68
2023/02/05 02:40:28;;;;;;;4.77;1.93;;;;;;;;;;5068959;28;20434;-69
2023/02/05 02:42:59;;;;;;;4.03;2.23;;;;;;;;;;5071605;28;20433;-68
2023/02/05 02:45:27;;;;;;;3.23;1.83;;;;;;;;;;5070556;28;20480;-68
2023/02/05 02:47:58;;;;;;;2.97;2.53;;;;;;;;;;5070857;28;20446;-68
2023/02/05 02:50:31;;;;;;;5.33;2.60;;;;;;;;;;5070815;28;20449;-68
2023/02/05 02:53:00;;;;;;;2.70;2.50;;;;;;;;;;5071166;28;20528;-69
2023/02/05 02:55:28;;;;;;;3.73;2.40;;;;;;;;;;5058112;28;20438;-68
2023/02/05 02:57:57;;;;;;;8.43;2.10;;;;;;;;;;5070486;28;20437;-68
2023/02/05 03:00:25;;;;;;;5.20;2.80;;;;;;;;;;5070500;28;20450;-68
2023/02/05 03:02:54;;;;;;;6.60;2.70;;;;;;;;;;5070261;28;20913;-68
2023/02/05 03:05:23;;;;;;;5.47;3.00;;;;;;;;;;5070678;28;20442;-68
2023/02/05 03:07:52;;;;;;;8.33;3.30;;;;;;;;;;5070664;28;20446;-68
2023/02/05 03:10:22;;;;;;;6.33;3.67;;;;;;;;;;5067638;28;20437;-68
2023/02/05 03:12:49;;;;;;;3.20;2.77;;;;;;;;;;5070555;28;20455;-68
2023/02/05 03:15:18;;;;;;;8.70;2.57;;;;;;;;;;5071189;28;20460;-69
2023/02/05 03:17:45;;;;;;;5.40;3.57;;;;;;;;;;5070253;28;20471;-68
2023/02/05 03:20:16;;;;;;;3.47;2.90;;;;;;;;;;5072047;28;20778;-69
2023/02/05 03:22:43;;;;;;;5.40;2.67;;;;;;;;;;5071718;28;20453;-69
2023/02/05 03:25:10;;;;;;;4.70;2.33;;;;;;;;;;5072663;28;20454;-68
2023/02/05 03:27:37;;;;;;;3.40;2.83;;;;;;;;;;5072039;28;20491;-69
2023/02/05 03:30:06;;;;;;;7.40;3.60;;;;;;;;;;5073445;28;20445;-69
2023/02/05 03:32:39;;;;;;;7.30;3.50;;;;;;;;;;5072834;28;20471;-69
2023/02/05 03:35:13;;;;;;;4.33;3.63;;;;;;;;;;5074281;28;20434;-70
2023/02/05 03:37:45;;;;;;;5.73;2.83;;;;;;;;;;5075307;28;20996;-68
2023/02/05 03:40:17;;;;;;;11.57;3.30;;;;;;;;;;5074289;28;20445;-69
2023/02/05 03:42:51;;;;;;;7.20;3.37;;;;;;;;;;5074960;28;20443;-69
2023/02/05 03:45:31;;;;;;;4.13;2.97;;;;;;;;;;5074476;28;20481;-69
2023/02/05 03:48:25;;;;;;;4.80;2.13;;;;;;;;;;5071217;28;20438;-69
2023/02/05 03:50:56;;;;;;;2.67;2.30;;;;;;;;;;5034844;28;20463;-69
2023/02/05 03:53:26;;;;;;;3.13;2.47;;;;;;;;;;5070014;28;20456;-68
2023/02/05 03:55:57;;;;;;;13.00;3.13;;;;;;;;;;5070478;28;20882;-69
2023/02/05 03:58:27;;;;;;;2.40;2.17;;;;;;;;;;5070237;28;20445;-68
2023/02/05 04:00:54;;;;;;;4.97;2.97;;;;;;;;;;5070842;28;20457;-68
2023/02/05 04:03:21;;;;;;;3.90;2.40;;;;;;;;;;5070500;28;20445;-69
2023/02/05 04:05:49;;;;;;;4.00;2.27;;;;;;;;;;5070208;28;20441;-68
2023/02/05 04:08:17;;;;;;;4.33;2.97;;;;;;;;;;5070492;28;20446;-68
2023/02/05 04:10:44;;;;;;;6.33;2.40;;;;;;;;;;5069863;28;20459;-68
2023/02/05 04:13:11;;;;;;;4.40;2.00;;;;;;;;;;5070439;28;20455;-69
2023/02/05 04:15:38;;;;;;;2.20;1.53;;;;;;;;;;5069701;28;20472;-68
2023/02/05 04:18:06;;;;;;;2.30;2.00;;;;;;;;;;5070400;28;20947;-68
2023/02/05 04:20:33;;;;;;;7.50;2.07;;;;;;;;;;5069282;28;20916;-68
2023/02/05 04:23:00;;;;;;;3.30;2.20;;;;;;;;;;5072623;28;20456;-68
2023/02/05 04:25:28;;;;;;;2.70;2.43;;;;;;;;;;5073549;28;20449;-67
2023/02/05 04:27:56;;;;;;;3.93;2.20;;;;;;;;;;5073690;28;20511;-68
2023/02/05 04:30:23;;;;;;;2.60;2.03;;;;;;;;;;5073398;28;20446;-67
2023/02/05 04:32:50;;;;;;;2.73;2.10;;;;;;;;;;5074031;28;20452;-68
2023/02/05 04:35:17;;;;;;;14.27;2.60;;;;;;;;;;5073375;28;20962;-68
2023/02/05 04:37:44;;;;;;;3.00;2.50;;;;;;;;;;5072889;28;20457;-68
2023/02/05 04:40:11;;;;;;;2.40;1.70;;;;;;;;;;5073436;28;20471;-68
2023/02/05 04:42:40;;;;;;;8.53;3.23;;;;;;;;;;5073324;28;20452;-69
2023/02/05 04:45:07;;;;;;;4.40;2.00;;;;;;;;;;5073509;28;20472;-68
2023/02/05 04:47:35;;;;;;;3.33;2.30;;;;;;;;;;5072253;28;20827;-68
2023/02/05 04:50:02;;;;;;;4.90;2.13;;;;;;;;;;5073288;28;20453;-68
2023/02/05 04:52:29;;;;;;;6.33;2.27;;;;;;;;;;5072898;28;20454;-68
2023/02/05 04:54:56;;;;;;;4.30;2.03;;;;;;;;;;5073221;28;20456;-68
2023/02/05 04:57:23;;;;;;;7.33;1.90;;;;;;;;;;5072454;28;20449;-67
2023/02/05 04:59:52;;;;;;;4.77;1.70;;;;;;;;;;5073338;28;20446;-68
2023/02/05 05:02:19;;;;;;;4.87;2.00;;;;;;;;;;5073355;28;20487;-68
2023/02/05 05:04:46;;;;;;;2.00;1.50;;;;;;;;;;5072365;28;20444;-69
2023/02/05 05:07:14;;;;;;;6.37;2.23;;;;;;;;;;5072305;28;20981;-69
2023/02/05 05:09:41;;;;;;;2.77;1.33;;;;;;;;;;5072693;28;20445;-69
2023/02/05 05:12:09;;;;;;;1.73;1.27;;;;;;;;;;5073038;28;20452;-68
2023/02/05 05:14:36;;;;;;;4.13;2.37;;;;;;;;;;5072369;28;20461;-68
2023/02/05 05:17:04;;;;;;;9.20;2.17;;;;;;;;;;5072788;28;20855;-68
2023/02/05 05:19:31;;;;;;;2.53;1.80;;;;;;;;;;5071117;28;20447;-68
2023/02/05 05:21:59;;;;;;;2.73;1.40;;;;;;;;;;5072944;28;20903;-68
2023/02/05 05:24:26;;;;;;;5.83;1.77;;;;;;;;;;5072376;28;20448;-68
2023/02/05 05:26:53;;;;;;;3.63;1.30;;;;;;;;;;5072606;28;20482;-68
2023/02/05 05:29:20;;;;;;;3.03;2.00;;;;;;;;;;5073177;28;20459;-68
2023/02/05 05:31:47;;;;;;;5.60;2.00;;;;;;;;;;5078326;28;20453;-68
2023/02/05 05:34:16;;;;;;;4.33;1.23;;;;;;;;;;5072604;28;20453;-68
2023/02/05 05:36:43;;;;;;;5.87;1.93;;;;;;;;;;5071750;28;20452;-68
2023/02/05 05:44:39;;;;;;;2.73;2.40;;;;;;;;;;5072042;28;20826;-68
2023/02/05 05:47:06;;;;;;;3.27;1.83;;;;;;;;;;5072150;28;20488;-68
2023/02/05 05:49:35;;;;;;;6.17;2.47;;;;;;;;;;5071909;28;20452;-68
2023/02/05 05:52:02;;;;;;;1.47;1.30;;;;;;;;;;5072652;28;20806;-68
2023/02/05 05:54:29;;;;;;;10.90;2.27;;;;;;;;;;5072031;28;20459;-68
2023/02/05 05:56:56;;;;;;;3.80;2.43;;;;;;;;;;5071626;28;20453;-68
2023/02/05 05:59:23;;;;;;;3.03;1.47;;;;;;;;;;5071570;28;20452;-67
2023/02/05 06:01:50;;;;;;;2.10;1.53;;;;;;;;;;5072158;28;20442;-68
2023/02/05 06:04:17;;;;;;;7.33;1.40;;;;;;;;;;5072460;28;20451;-68
2023/02/05 06:06:46;;;;;;;3.83;2.30;;;;;;;;;;5071249;28;20481;-68
2023/02/05 06:09:13;;;;;;;5.83;1.70;;;;;;;;;;5061770;28;20447;-69
2023/02/05 06:11:40;;;;;;;10.33;3.80;;;;;;;;;;5071536;28;20963;-68
2023/02/05 06:14:07;;;;;;;8.30;3.20;;;;;;;;;;5072183;28;20457;-69
2023/02/05 06:16:34;;;;;;;7.90;2.30;;;;;;;;;;5071003;28;20460;-68
2023/02/05 06:19:01;;;;;;;4.63;1.77;;;;;;;;;;5071516;28;20452;-68
2023/02/05 06:21:28;;;;;;;4.70;1.97;;;;;;;;;;5071548;28;20489;-68
2023/02/05 06:23:56;;;;;;;5.73;2.63;;;;;;;;;;5072012;28;20449;-68
2023/02/05 06:26:24;;;;;;;5.43;2.47;;;;;;;;;;5070742;28;20775;-68
2023/02/05 06:28:51;;;;;;;3.50;2.07;;;;;;;;;;5071789;28;20452;-69
2023/02/05 06:31:18;;;;;;;2.67;2.30;;;;;;;;;;5072160;28;20807;-69
2023/02/05 06:33:45;;;;;;;2.90;2.70;;;;;;;;;;5070878;28;20970;-69
2023/02/05 06:36:12;;;;;;;5.73;2.17;;;;;;;;;;5071649;28;20772;-69
2023/02/05 06:38:39;;;;;;;3.70;3.40;;;;;;;;;;5071295;28;20453;-68
2023/02/05 06:41:08;;;;;;;9.60;2.20;;;;;;;;;;5071791;28;20445;-69
2023/02/05 06:43:35;;;;;;;4.50;2.40;;;;;;;;;;5070824;28;20942;-68
2023/02/05 06:46:02;;;;;;;2.67;1.87;;;;;;;;;;5070400;28;20494;-69
2023/02/05 06:48:29;;;;;;;5.13;3.03;;;;;;;;;;5070591;28;20485;-69
2023/02/05 06:50:56;;;;;;;2.93;2.37;;;;;;;;;;5071613;28;20447;-70
2023/02/05 06:53:23;;;;;;;3.30;2.13;;;;;;;;;;5070812;28;20461;-68
2023/02/05 06:55:50;;;;;;;4.03;3.07;;;;;;;;;;5071452;28;20470;-69
2023/02/05 06:58:19;;;;;;;5.33;3.50;;;3.90;1.00;;;;;;5071774;28;20453;-69
2023/02/05 07:00:45;;;;;;;4.10;2.83;;;3.70;1.00;;;;;;5070687;28;20539;-70
2023/02/05 07:03:12;;;;;;;6.13;3.40;;;3.60;1.00;;;;;;5071313;28;20456;-69
2023/02/05 07:05:39;;;;;;;20.37;3.53;;;3.60;10.00;;;;;;5070449;28;20448;-68
2023/02/05 07:08:06;;;;;;;4.27;2.37;;;4.20;99.90;;;;;;5071158;28;20485;-69
2023/02/05 07:10:33;;;;;;;5.27;2.37;;;3.90;1.00;;;;;;5070782;28;20514;-68
2023/02/05 07:13:00;;;;;;;3.60;2.43;;;3.70;1.00;;;;;;5071299;28;21210;-69
2023/02/05 07:15:28;;;;;;;3.37;2.00;;;3.80;1.00;;;;;;5070430;28;20460;-68
2023/02/05 07:17:55;;;;;;;8.43;3.67;;;3.70;1.00;;;;;;5071021;28;20457;-68
2023/02/05 07:20:22;;;;;;;3.27;1.97;;;3.70;1.00;;;;;;5071433;28;20453;-69
2023/02/05 07:22:49;;;;;;;7.67;2.53;;;3.80;1.00;;;;;;5057839;28;20774;-69
2023/02/05 07:25:15;;;;;;;3.90;3.00;;;3.90;1.00;;;;;;5070460;28;20457;-68
2023/02/05 07:27:42;;;;;;;15.10;3.27;;;3.80;1.00;;;;;;5070406;28;20488;-68
2023/02/05 07:30:10;;;;;;;7.83;2.70;;;3.80;1.00;;;;;;5069926;28;20448;-69
2023/02/05 07:32:38;;;;;;;7.40;2.60;;;3.60;1.00;;;;;;5069780;28;20447;-68
2023/02/05 07:35:06;;;;;;;2.90;2.67;;;3.60;32.40;;;;;;5070522;28;20457;-69
2023/02/05 07:37:33;;;;;;;4.63;2.33;;;3.60;44.80;;;;;;5069930;28;20453;-68
2023/02/05 07:39:59;;;;;;;7.63;3.10;;;3.70;9.30;;;;;;5070902;28;20449;-69
2023/02/05 07:42:26;;;;;;;2.90;2.20;;;3.60;34.50;;;;;;5069146;28;21012;-70
2023/02/05 07:44:53;;;;;;;2.97;1.57;;;3.70;56.80;;;;;;5071001;28;20495;-71
2023/02/05 07:47:20;;;;;;;10.27;3.27;;;3.60;22.40;;;;;;5070661;28;20551;-70
2023/02/05 07:49:48;;;;;;;3.50;2.10;;;3.70;91.40;;;;;;5070705;28;20446;-73
2023/02/05 07:52:15;;;;;;;2.03;1.73;;;3.60;33.90;;;;;;5070803;28;20555;-71
2023/02/05 08:09:59;;;;;;;10.57;5.77;;;3.60;93.10;;;;;;5083340;28;20559;-69
2023/02/05 08:12:26;;;;;;;5.70;3.40;;;4.10;1.00;;;;;;5067992;28;20456;-70
2023/02/05 08:14:52;;;;;;;6.30;3.07;;;4.10;1.00;;;;;;5073332;28;20449;-70
2023/02/05 08:17:19;;;;;;;5.33;3.07;;;4.00;1.00;;;;;;5066860;28;20942;-70
2023/02/05 08:19:46;;;;;;;7.50;4.27;;;4.20;1.00;;;;;;5067527;28;20456;-68
2023/02/05 08:22:13;;;;;;;7.43;3.50;;;4.10;1.00;;;;;;5066379;28;20457;-68
2023/02/05 08:24:40;;;;;;;5.60;2.77;;;;;;;;;;5070175;28;20475;-69
2023/02/05 08:27:08;;;;;;;4.60;2.53;;;;;;;;;;5066550;28;20449;-68
2023/02/05 08:29:36;;;;;;;4.97;3.07;;;;;;;;;;5075312;28;20536;-70
2023/02/05 08:32:03;;;;;;;7.33;3.83;;;;;;;;;;5066504;28;20803;-70
2023/02/05 08:34:30;;;;;;;5.37;2.80;;;;;;;;;;5067122;28;20452;-67
2023/02/05 08:36:58;;;;;;;3.33;2.97;;;;;;;;;;5066215;28;20450;-67
2023/02/05 08:39:25;;;;;;;4.10;2.83;;;;;;;;;;5067115;28;20489;-67
2023/02/05 08:41:52;;;;;;;4.10;2.60;;;;;;;;;;5075895;28;20949;-67
2023/02/05 08:44:21;;;;;;;5.23;2.90;;;;;;;;;;5066560;28;20784;-68
2023/02/05 08:46:48;;;;;;;3.03;2.57;;;;;;;;;;5066021;28;20477;-71
2023/02/05 08:49:15;;;;;;;2.53;2.33;;;;;;;;;;5066142;28;21337;-71
2023/02/05 08:51:43;;;;;;;5.40;3.40;;;;;;;;;;5072126;28;20777;-74
2023/02/05 08:54:12;;;;;;;4.90;2.70;;;;;;;;;;5066046;28;20961;-72
2023/02/05 08:56:39;;;;;;;4.83;3.17;;;;;;;;;;5066244;28;20453;-72
2023/02/05 08:59:07;;;;;;;4.80;2.90;;;;;;;;;;5065910;28;20493;-72
2023/02/05 09:01:36;;;;;;;5.40;3.73;;;;;;;;;;5066759;28;20496;-71
2023/02/05 09:04:03;;;;;;;5.37;3.03;;;;;;;;;;5065203;28;20438;-72
2023/02/05 09:06:31;;;;;;;8.00;3.27;;;;;;;;;;5065919;28;20457;-74
2023/02/05 09:08:58;;;;;;;5.37;2.73;;;;;;;;;;5063210;28;20486;-69
2023/02/05 09:11:26;;;;;;;4.23;3.80;;;;;;;;;;5052772;28;20453;-72
2023/02/05 09:13:53;;;;;;;9.53;2.90;;;;;;;;;;5053397;28;20446;-73
2023/02/05 09:16:20;;;;;;;3.83;3.43;;;;;;;;;;5051764;28;20455;-73
2023/02/05 09:18:49;;;;;;;6.53;3.57;;;;;;;;;;5053220;28;20489;-73
2023/02/05 09:21:16;;;;;;;5.93;3.80;;;;;;;;;;5052064;28;20524;-72
2023/02/05 09:23:43;;;;;;;7.20;3.17;;;;;;;;;;5052844;28;20529;-73
2023/02/05 09:26:10;;;;;;;8.13;3.20;;;;;;;;;;5051997;28;20917;-72
2023/02/05 09:28:37;;;;;;;6.57;3.80;;;;;;;;;;5053265;28;20451;-72
2023/02/05 09:31:08;;;;;;;6.70;3.17;;;;;;;;;;5051810;28;20458;-72
2023/02/05 09:33:35;;;;;;;3.27;2.97;;;;;;;;;;5052862;28;20442;-73
2023/02/05 09:36:08;;;;;;;3.13;2.77;;;;;;;;;;5051171;28;20931;-69
2023/02/05 09:38:35;;;;;;;6.60;3.17;;;;;;;;;;5052493;28;20482;-75
2023/02/05 09:41:05;;;;;;;5.87;3.10;;;;;;;;;;5056036;28;20460;-73
2023/02/05 09:43:39;;;;;;;6.37;3.90;;;;;;;;;;5060507;28;20450;-74
2023/02/05 09:46:10;;;;;;;6.07;2.90;;;;;;;;;;5038350;28;20451;-74
2023/02/05 09:48:52;;;;;;;5.10;2.70;;;;;;;;;;5052817;28;20458;-72
2023/02/05 09:51:22;;;;;;;5.97;2.43;;;;;;;;;;5051631;28;20474;-73
2023/02/05 09:53:51;;;;;;;10.33;2.20;;;;;;;;;;5052290;28;20453;-80
2023/02/05 09:56:18;;;;;;;5.23;3.40;;;;;;;;;;5041935;28;20443;-75
2023/02/05 09:58:48;;;;;;;6.23;2.37;;;;;;;;;;5052371;28;20478;-73
2023/02/05 10:01:19;;;;;;;3.20;2.63;;;;;;;;;;5051336;28;20463;-72
2023/02/05 10:03:47;;;;;;;9.30;2.93;;;;;;;;;;5052335;28;20774;-74
2023/02/05 10:06:23;;;;;;;4.20;3.00;;;;;;;;;;5050505;28;20453;-77
2023/02/05 10:08:57;;;;;;;4.47;3.07;;;;;;;;;;5051863;28;20503;-75
2023/02/05 10:11:27;;;;;;;3.60;2.77;;;;;;;;;;5051700;28;20438;-74
2023/02/05 10:14:02;;;;;;;7.13;3.43;;;;;;;;;;5052121;28;20454;-75
2023/02/05 10:16:46;;;;;;;12.30;3.63;;;;;;;;;;5051857;28;20452;-75
2023/02/05 10:19:21;;;;;;;5.00;3.60;;;;;;;;;;5051116;28;20826;-70
2023/02/05 10:21:55;;;;;;;13.33;4.50;;;;;;;;;;5050942;28;20442;-70
2023/02/05 10:24:40;;;;;;;6.93;4.00;;;;;;;;;;5051395;28;20466;-71
2023/02/05 10:27:13;;;;;;;4.90;2.90;;;;;;;;;;5049055;28;20434;-68
2023/02/05 10:29:43;;;;;;;6.40;3.13;;;;;;;;;;5044417;28;20462;-73
2023/02/05 10:32:17;;;;;;;5.73;3.00;;;;;;;;;;5049552;28;20450;-72
2023/02/05 10:34:48;;;;;;;5.60;2.90;;;;;;;;;;5049329;28;20438;-73
2023/02/05 10:37:17;;;;;;;4.20;2.80;;;;;;;;;;5047556;28;20446;-73
2023/02/05 10:39:46;;;;;;;3.50;2.70;;;;;;;;;;5049061;28;20485;-74
2023/02/05 10:42:22;;;;;;;4.33;2.53;;;;;;;;;;5048671;28;20816;-73
2023/02/05 10:44:50;;;;;;;3.13;2.50;;;;;;;;;;5049093;28;20458;-74
2023/02/05 10:47:23;;;;;;;9.40;4.33;;;;;;;;;;5044950;28;20439;-74
2023/02/05 10:49:52;;;;;;;4.87;3.73;;;;;;;;;;5048138;28;20439;-71
2023/02/05 10:52:19;;;;;;;4.00;2.60;;;;;;;;;;5047543;28;20450;-74
2023/02/05 10:54:48;;;;;;;9.17;3.37;;;;;;;;;;5048756;28;20457;-74
2023/02/05 10:57:15;;;;;;;6.20;3.10;;;;;;;;;;5047293;28;20531;-75
2023/02/05 10:59:48;;;;;;;5.20;3.47;;;;;;;;;;5048846;28;20492;-74
2023/02/05 11:02:15;;;;;;;6.83;3.30;;;;;;;;;;5048198;28;20442;-73
2023/02/05 11:04:44;;;;;;;6.20;3.10;;;;;;;;;;5047786;28;20981;-73
2023/02/05 11:07:12;;;;;;;9.50;3.73;;;;;;;;;;5047519;28;20446;-72
2023/02/05 11:09:40;;;;;;;6.07;3.97;;;;;;;;;;5048604;28;20477;-71
2023/02/05 11:12:17;;;;;;;5.93;3.07;;;;;;;;;;5047618;28;20946;-72
2023/02/05 11:14:48;;;;;;;6.33;3.60;;;;;;;;;;5043549;28;20922;-72
2023/02/05 11:17:21;;;;;;;8.87;3.77;;;;;;;;;;5046659;28;20536;-78
2023/02/05 11:19:54;;;;;;;6.90;3.30;;;;;;;;;;5048217;28;20466;-82
2023/02/05 11:22:26;;;;;;;12.73;4.60;;;;;;;;;;5046362;28;20446;-83
2023/02/05 11:25:04;;;;;;;3.70;2.33;;;;;;;;;;5048443;28;20454;-76
2023/02/05 11:27:33;;;;;;;3.93;3.10;;;;;;;;;;5047506;28;20446;-77
2023/02/05 11:30:18;;;;;;;2.90;2.20;;;;;;;;;;5047867;28;20819;-71
2023/02/05 11:32:45;;;;;;;3.20;2.90;;;;;;;;;;5047386;28;20450;-75
2023/02/05 11:35:20;;;;;;;7.10;3.37;;;;;;;;;;5047244;28;20456;-73
2023/02/05 11:37:49;;;;;;;3.93;2.03;;;;;;;;;;5047677;28;20463;-73
2023/02/05 11:40:20;;;;;;;4.10;2.97;;;;;;;;;;5046609;28;20482;-77
2023/02/05 11:42:55;;;;;;;11.30;3.63;;;;;;;;;;5047249;28;20450;-78
2023/02/05 11:45:24;;;;;;;5.73;2.90;;;;;;;;;;5042631;28;20798;-71
2023/02/05 11:47:51;;;;;;;11.10;3.70;;;;;;;;;;5047585;28;20454;-78
2023/02/05 11:50:22;;;;;;;5.57;3.70;;;;;;;;;;5047223;28;20652;-78
2023/02/05 11:52:49;;;;;;;4.40;2.80;;;;;;;;;;5047740;28;20454;-77
2023/02/05 11:55:25;;;;;;;4.40;2.80;;;;;;;;;;5047514;28;20443;-78
2023/02/05 11:57:58;;;;;;;3.77;2.80;;;;;;;;;;5047018;28;20472;-79
2023/02/05 12:00:25;;;;;;;8.53;4.53;;;;;;;;;;5047733;28;20482;-78
2023/02/05 12:03:02;;;;;;;3.77;3.03;;;;;;;;;;5047555;28;20450;-80
2023/02/05 12:05:31;;;;;;;3.63;2.50;;;;;;;;;;5047844;28;20796;-76
2023/02/05 12:08:00;;;;;;;5.87;2.87;;;;;;;;;;5046868;28;20482;-77
2023/02/05 12:10:31;;;;;;;5.63;2.90;;;;;;;;;;5047732;28;20548;-78
2023/02/05 12:13:03;;;;;;;3.13;2.53;;;;;;;;;;5047407;28;20451;-78
2023/02/05 12:15:36;;;;;;;4.37;3.53;;;;;;;;;;5046996;28;20450;-79
2023/02/05 12:18:08;;;;;;;3.53;3.10;;;;;;;;;;5045987;28;20577;-71
2023/02/05 12:20:38;;;;;;;4.60;3.13;;;;;;;;;;5047685;28;20477;-75
2023/02/05 12:23:15;;;;;;;4.87;2.80;;;;;;;;;;5046521;28;20753;-79
2023/02/05 12:25:47;;;;;;;4.10;3.00;;;;;;;;;;5047849;28;20454;-77
2023/02/05 12:28:21;;;;;;;4.93;3.83;;;;;;;;;;5046555;28;20445;-76
2023/02/05 12:30:56;;;;;;;5.77;2.90;;;;;;;;;;5036486;28;20504;-76
2023/02/05 12:33:39;;;;;;;3.13;2.93;;;;;;;;;;5046855;28;20446;-77
2023/02/05 12:36:12;;;;;;;8.40;3.33;;;;;;;;;;5046544;28;20439;-79
2023/02/05 12:38:44;;;;;;;16.50;10.03;;;;;;;;;;5045345;28;20466;-75
2023/02/05 12:41:20;;;;;;;7.83;2.90;;;;;;;;;;5045725;28;20442;-73
2023/02/05 12:43:52;;;;;;;6.53;3.10;;;;;;;;;;5047610;28;20790;-76
2023/02/05 12:46:32;;;;;;;4.70;3.70;;;;;;;;;;5048265;28;20550;-74
2023/02/05 12:49:10;;;;;;;10.23;2.20;;;;;;;;;;5048056;28;20458;-72
2023/02/05 12:51:43;;;;;;;4.07;2.63;;;;;;;;;;5050956;28;20442;-72
2023/02/05 12:54:18;;;;;;;4.13;2.93;;;;;;;;;;5050339;28;20794;-71
2023/02/05 12:56:53;;;;;;;6.83;2.10;;;;;;;;;;5050849;28;20437;-71
2023/02/05 12:59:27;;;;;;;1.80;1.40;;;;;;;;;;5050230;28;20477;-73
2023/02/05 13:01:56;;;;;;;3.40;1.83;;;;;;;;;;5051138;28;20447;-71
2023/02/05 13:04:25;;;;;;;4.60;1.83;;;;;;;;;;5049846;28;20957;-72
2023/02/05 13:06:55;;;;;;;3.30;1.40;;;;;;;;;;5050154;28;20931;-71
2023/02/05 13:09:25;;;;;;;3.17;2.00;;;;;;;;;;5049862;28;20490;-72
2023/02/05 13:11:54;;;;;;;3.10;1.80;;;;;;;;;;5050937;28;20473;-82
2023/02/05 13:14:26;;;;;;;2.07;1.70;;;;;;;;;;5050178;28;20442;-69
2023/02/05 13:16:55;;;;;;;2.43;1.77;;;;;;;;;;5050291;28;20457;-70
2023/02/05 13:19:26;;;;;;;2.90;1.80;;;;;;;;;;5049971;28;20858;-71
2023/02/05 13:30:17;;;;;;;4.43;2.20;;;;;;;;;;5048812;28;20544;-70
2023/02/05 13:32:47;;;;;;;3.50;2.27;;;;;;;;;;5050428;28;20447;-70
2023/02/05 13:35:15;;;;;;;3.03;2.33;;;;;;;;;;5049111;28;20481;-70
2023/02/05 13:37:51;;;;;;;2.13;1.63;;;;;;;;;;5049589;28;20459;-69
2023/02/05 13:40:25;;;;;;;6.07;1.50;;;;;;;;;;5048227;28;20519;-68
2023/02/05 13:43:22;;;;;;;1.83;1.20;;;;;;;;;;5050097;28;20453;-71
2023/02/05 13:46:00;;;;;;;4.50;2.10;;;;;;;;;;4996784;28;20452;-69
2023/02/05 13:48:37;;;;;;;2.43;1.87;;;;;;;;;;5042024;28;20477;-69
2023/02/05 13:51:19;;;;;;;2.30;1.70;;;;;;;;;;5049721;28;20450;-68
2023/02/05 13:53:52;;;;;;;2.87;2.33;;;;;;;;;;5036831;28;20465;-68
2023/02/05 13:56:26;;;;;;;3.60;1.60;;;;;;;;;;5048871;28;20464;-68
2023/02/05 13:58:54;;;;;;;2.00;1.43;;;;;;;;;;5049358;28;20454;-68
2023/02/05 14:01:25;;;;;;;4.90;4.40;;;;;;;;;;5048737;28;20447;-69
2023/02/05 14:03:57;;;;;;;1.57;1.43;;;;;;;;;;5049344;28;20465;-71
2023/02/05 14:06:27;;;;;;;3.07;2.13;;;;;;;;;;5048737;28;20486;-69
2023/02/05 14:08:59;;;;;;;2.60;1.80;;;;;;;;;;5048739;28;20469;-68
2023/02/05 14:11:26;;;;;;;3.00;1.70;;;;;;;;;;5048637;28;20958;-68
2023/02/05 14:14:12;;;;;;;1.00;0.80;;;;;;;;;;5049601;28;20462;-69
2023/02/05 14:16:40;;;;;;;2.27;1.30;;;;;;;;;;5048477;28;20994;-70
2023/02/05 14:19:20;;;;;;;2.23;1.50;;;;;;;;;;5048706;28;20458;-68
2023/02/05 14:22:12;;;;;;;2.17;1.43;;;;;;;;;;5049391;28;20746;-68
2023/02/05 14:24:44;;;;;;;2.10;1.60;;;;;;;;;;5048631;28;20446;-69
2023/02/05 14:27:42;;;;;;;2.50;1.53;;;;;;;;;;5046451;28;21243;-68
2023/02/05 14:30:27;;;;;;;1.30;1.10;;;;;;;;;;5048487;28;20450;-68
2023/02/05 14:32:59;;;;;;;2.37;1.70;;;;;;;;;;5049100;28;20442;-71
2023/02/05 14:35:31;;;;;;;2.20;1.47;;;;;;;;;;5048595;28;20451;-71
2023/02/05 14:38:01;;;;;;;1.23;1.10;;;;;;;;;;5048282;28;20816;-70
2023/02/05 14:40:29;;;;;;;2.50;0.87;;;;;;;;;;5035785;28;20892;-68
2023/02/05 14:42:58;;;;;;;1.70;1.40;;;;;;;;;;5048675;28;20451;-68
2023/02/05 14:45:27;;;;;;;1.30;1.20;;;;;;;;;;5046065;28;20465;-68
2023/02/05 14:47:55;;;;;;;1.00;0.67;;;;;;;;;;5048561;28;20458;-68
2023/02/05 14:50:25;;;;;;;2.30;1.43;;;;;;;;;;5048035;28;21203;-69
2023/02/05 14:52:53;;;;;;;3.10;1.77;;;;;;;;;;5048229;28;20439;-70
2023/02/05 14:55:22;;;;;;;1.37;1.20;;;;;;;;;;5047293;28;20478;-69
2023/02/05 14:57:51;;;;;;;1.57;1.47;;;;;;;;;;5048410;28;20814;-71
2023/02/05 15:00:26;;;;;;;2.00;1.10;;;;;;;;;;5047682;28;20486;-68
2023/02/05 15:03:02;;;;;;;3.47;1.50;;;;;;;;;;5048000;28;20446;-69
2023/02/05 15:05:35;;;;;;;2.30;1.30;;;;;;;;;;5047614;28;20442;-68
2023/02/05 15:08:06;;;;;;;2.80;1.47;;;;;;;;;;5046757;28;20485;-69
2023/02/05 15:10:37;;;;;;;1.40;1.00;;;;;;;;;;5048567;28;20485;-69
2023/02/05 15:13:09;;;;;;;1.47;1.20;;;;;;;;;;5048301;28;20458;-68